Time;durP1;ratioP1;P1;durP2;ratioP2;P2;SDS_P1;SDS_P2;PMS_P1;PMS_P2;Temp;Humidity;BMP_temperature;BMP_pressure;BME280_temperature;BME280_humidity;BME280_pressure;Samples;Min_cycle;Max_cycle;Signal;HPM_P1;HPM_P2
2023/12/19 00:00:44;;;;;;;;;10.00;9.00;;;;;-143.90;68.10;76468.69;4916818;28;103548;-74
2023/12/19 00:03:11;;;;;;;;;11.00;11.00;;;;;-143.90;67.86;76472.81;4922272;28;101978;-74
2023/12/19 00:05:41;;;;;;;;;11.50;10.50;;;;;-143.90;67.90;76470.75;4916176;28;102155;-74
2023/12/19 00:08:09;;;;;;;;;12.00;11.00;;;;;-143.90;67.72;76474.91;4916110;28;103072;-75
2023/12/19 00:10:35;;;;;;;;;13.25;10.50;;;;;-143.90;68.01;76481.09;4925451;28;103350;-74
2023/12/19 00:13:02;;;;;;;;;8.00;6.25;;;;;-143.90;67.97;76479.03;4928036;28;101766;-75
2023/12/19 00:15:29;;;;;;;;;9.00;7.00;;;;;-143.90;67.82;76481.09;4926823;28;101582;-74
2023/12/19 00:17:56;;;;;;;;;10.75;9.75;;;;;-143.90;67.84;76479.03;4927447;28;102071;-75
2023/12/19 00:20:22;;;;;;;;;10.75;10.75;;;;;-143.90;67.73;76479.03;4924496;28;103327;-74
2023/12/19 00:22:49;;;;;;;;;11.00;8.25;;;;;-143.90;67.87;76479.03;4927378;28;101791;-75
2023/12/19 00:25:16;;;;;;;;;11.75;10.75;;;;;-143.90;67.64;76479.03;4928218;28;102174;-75
2023/12/19 00:27:42;;;;;;;;;12.75;10.50;;;;;-143.90;67.29;76479.03;4929043;28;101778;-74
2023/12/19 00:30:10;;;;;;;;;9.25;7.50;;;;;-143.90;67.35;76483.16;4925878;28;103554;-75
2023/12/19 00:32:36;;;;;;;;;11.50;10.50;;;;;-143.90;67.26;76487.31;4929305;28;102054;-75
2023/12/19 00:35:03;;;;;;;;;9.00;7.50;;;;;-143.90;67.19;76491.44;4923093;28;110780;-74
2023/12/19 00:37:30;;;;;;;;;11.25;8.75;;;;;-143.90;67.13;76495.56;4908535;28;101623;-75
2023/12/19 00:39:57;;;;;;;;;15.25;11.25;;;;;-143.90;67.39;76493.50;4921688;28;103676;-74
2023/12/19 00:42:23;;;;;;;;;8.25;7.00;;;;;-143.90;67.05;76489.38;4925976;28;101922;-75
2023/12/19 00:44:50;;;;;;;;;10.25;8.00;;;;;-143.90;66.50;76487.31;4925041;28;101714;-74
2023/12/19 00:47:17;;;;;;;;;11.00;9.00;;;;;-143.90;66.64;76472.81;4924655;28;101697;-74
2023/12/19 00:49:43;;;;;;;;;11.50;11.25;;;;;-143.90;65.88;76462.47;4925897;28;103756;-74
2023/12/19 00:52:10;;;;;;;;;10.50;7.50;;;;;-143.90;66.00;76462.47;4928596;28;101966;-74
2023/12/19 00:54:37;;;;;;;;;11.00;9.25;;;;;-143.90;65.42;76462.47;4927282;28;101706;-75
2023/12/19 00:57:04;;;;;;;;;11.50;10.00;;;;;-143.90;64.81;76441.81;4922833;28;101881;-74
2023/12/19 00:59:30;;;;;;;;;12.50;8.50;;;;;-143.90;64.98;76427.31;4922197;28;103363;-75
2023/12/19 01:01:57;;;;;;;;;12.00;11.00;;;;;-143.90;64.91;76448.00;4918075;28;102267;-75
2023/12/19 01:04:23;;;;;;;;;12.50;9.50;;;;;-143.90;64.75;76443.88;4912713;28;102315;-75
2023/12/19 01:06:50;;;;;;;;;9.50;7.00;;;;;-143.90;64.66;76443.88;4923409;28;101869;-74
2023/12/19 01:09:17;;;;;;;;;9.00;7.75;;;;;-143.90;64.84;76443.88;4924034;28;103803;-75
2023/12/19 01:11:43;;;;;;;;;7.00;6.25;;;;;-143.90;64.30;76433.53;4927009;28;101718;-74
2023/12/19 01:14:10;;;;;;;;;10.50;7.00;;;;;-143.90;64.09;76429.41;4917405;28;101706;-74
2023/12/19 01:16:36;;;;;;;;;4.50;2.75;;;;;-143.90;64.40;76427.31;4923066;28;102294;-75
2023/12/19 01:19:06;;;;;;;;;11.00;9.25;;;;;-143.90;63.97;76417.00;4921575;28;106594;-74
2023/12/19 01:21:33;;;;;;;;;9.00;7.25;;;;;-143.90;64.59;76417.00;4903788;28;101833;-74
2023/12/19 01:24:00;;;;;;;;;8.00;7.50;;;;;-143.90;63.48;76402.50;4922241;28;102148;-74
2023/12/19 01:26:26;;;;;;;;;8.00;6.25;;;;;-143.90;63.54;76388.03;4922772;28;102539;-75
2023/12/19 01:28:56;;;;;;;;;12.75;11.50;;;;;-143.90;63.08;76388.03;4925022;28;103466;-74
2023/12/19 01:31:22;;;;;;;;;16.50;11.25;;;;;-143.90;62.26;76385.97;4920445;28;101830;-75
2023/12/19 01:33:53;;;;;;;;;12.25;11.50;;;;;-143.90;62.29;76369.41;4905597;28;101679;-75
2023/12/19 01:36:21;;;;;;;;;11.50;7.75;;;;;-143.90;62.19;76363.22;4928651;28;101928;-74
2023/12/19 01:38:47;;;;;;;;;11.25;10.00;;;;;-143.90;62.65;76346.69;4920455;28;103681;-75
2023/12/19 01:41:14;;;;;;;;;9.00;8.50;;;;;-143.90;62.21;76350.81;4923764;28;102490;-75
2023/12/19 01:43:40;;;;;;;;;9.00;8.50;;;;;-143.90;62.21;76350.81;4925892;28;101543;-74
2023/12/19 01:46:18;;;;;;;;;12.75;8.75;;;;;-143.90;61.60;76346.69;4919951;28;102072;-75
2023/12/19 01:48:45;;;;;;;;;8.75;8.75;;;;;-143.90;61.46;76348.75;4914758;28;111173;-74
2023/12/19 01:51:12;;;;;;;;;12.00;8.50;;;;;-143.90;61.61;76346.69;4918771;28;102239;-74
2023/12/19 01:53:43;;;;;;;;;9.50;8.50;;;;;-143.90;61.58;76348.75;4916619;28;101668;-75
2023/12/19 01:56:18;;;;;;;;;11.00;9.00;;;;;-143.90;61.09;76340.47;4918093;28;102439;-74
2023/12/19 01:58:46;;;;;;;;;11.25;10.00;;;;;-143.90;61.04;76334.25;4920029;28;107837;-75
2023/12/19 02:01:14;;;;;;;;;11.00;9.00;;;;;-143.90;60.55;76336.34;4920612;28;101954;-74
2023/12/19 02:03:42;;;;;;;;;12.00;9.50;;;;;-143.90;60.65;76332.19;4916949;28;101744;-75
2023/12/19 02:06:09;;;;;;;;;13.25;8.50;;;;;-143.90;60.29;76330.13;4901330;28;107874;-76
2023/12/19 02:08:35;;;;;;;;;10.00;8.25;;;;;-143.90;60.30;76317.72;4924074;28;103467;-74
2023/12/19 02:11:04;;;;;;;;;10.50;8.00;;;;;-143.90;60.12;76319.78;4913596;28;102789;-74
2023/12/19 02:13:31;;;;;;;;;9.00;8.25;;;;;-143.90;59.81;76311.53;4924662;28;101671;-75
2023/12/19 02:15:57;;;;;;;;;7.50;7.25;;;;;-143.90;60.03;76309.44;4923473;28;101917;-74
2023/12/19 02:18:24;;;;;;;;;11.25;8.00;;;;;-143.90;59.81;76307.38;4919062;28;103338;-74
2023/12/19 02:20:51;;;;;;;;;11.50;8.50;;;;;-143.90;59.54;76305.31;4919736;28;101593;-74
2023/12/19 02:23:18;;;;;;;;;11.75;9.50;;;;;-143.90;59.32;76297.03;4917602;28;101872;-76
2023/12/19 02:25:47;;;;;;;;;7.75;7.00;;;;;-143.90;59.52;76299.09;4923997;28;102073;-74
2023/12/19 02:28:13;;;;;;;;;10.50;7.75;;;;;-143.90;59.64;76303.25;4917930;28;103825;-74
2023/12/19 02:30:40;;;;;;;;;11.00;8.50;;;;;-143.90;59.04;76305.31;4919976;28;102990;-75
2023/12/19 02:33:10;;;;;;;;;13.75;8.00;;;;;-143.90;58.76;76301.19;4916683;28;101934;-75
2023/12/19 02:35:36;;;;;;;;;6.50;6.50;;;;;-143.90;58.59;76292.91;4924122;28;101670;-74
2023/12/19 02:38:03;;;;;;;;;9.75;8.00;;;;;-143.90;58.80;76284.63;4921771;28;103529;-75
2023/12/19 02:40:30;;;;;;;;;11.25;9.50;;;;;-143.90;58.32;76278.44;4924240;28;101942;-75
2023/12/19 02:42:57;;;;;;;;;8.50;8.00;;;;;-143.90;58.44;76268.09;4926125;28;101823;-74
2023/12/19 02:45:23;;;;;;;;;6.75;6.00;;;;;-143.90;57.88;76268.09;4924119;28;101670;-75
2023/12/19 02:47:51;;;;;;;;;8.50;6.75;;;;;-143.90;58.25;76272.22;4922801;28;103523;-74
2023/12/19 02:50:18;;;;;;;;;14.75;13.25;;;;;-143.90;58.07;76272.22;4925433;28;101653;-75
2023/12/19 02:52:44;;;;;;;;;14.25;12.00;;;;;-143.90;58.03;76282.56;4926009;28;102445;-75
2023/12/19 02:55:11;;;;;;;;;15.75;12.75;;;;;-143.90;57.79;76280.50;4927620;28;101887;-74
2023/12/19 02:57:38;;;;;;;;;15.25;13.25;;;;;-143.90;58.07;76280.50;4925883;28;103673;-75
2023/12/19 03:00:06;;;;;;;;;12.00;12.00;;;;;-143.90;57.58;76276.38;4921993;28;102374;-75
2023/12/19 03:02:32;;;;;;;;;12.25;8.25;;;;;-143.90;57.83;76278.44;4922918;28;101964;-75
2023/12/19 03:04:59;;;;;;;;;9.50;7.75;;;;;-143.90;57.62;76268.09;4910439;28;102079;-75
2023/12/19 03:07:26;;;;;;;;;15.50;11.75;;;;;-143.90;58.16;76278.44;4920428;28;103392;-75
2023/12/19 03:09:52;;;;;;;;;16.00;12.00;;;;;-143.90;57.77;76268.09;4922784;28;101819;-74
2023/12/19 03:12:19;;;;;;;;;12.75;11.75;;;;;-143.90;57.33;76253.63;4924689;28;102096;-74
2023/12/19 03:14:46;;;;;;;;;12.00;11.00;;;;;-143.90;57.64;76243.28;4924621;28;102061;-75
2023/12/19 03:17:12;;;;;;;;;11.00;9.50;;;;;-143.90;57.42;76235.00;4921822;28;103731;-75
2023/12/19 03:19:39;;;;;;;;;9.00;8.25;;;;;-143.90;57.09;76226.72;4924737;28;103412;-74
2023/12/19 03:22:06;;;;;;;;;8.75;7.75;;;;;-143.90;57.34;76220.53;4923705;28;103041;-75
2023/12/19 03:24:32;;;;;;;;;10.75;10.50;;;;;-143.90;56.92;76216.41;4924252;28;102069;-75
2023/12/19 03:26:59;;;;;;;;;8.25;7.75;;;;;-143.90;56.87;76210.19;4924362;28;103448;-75
2023/12/19 03:29:26;;;;;;;;;6.50;6.25;;;;;-143.90;56.97;76197.78;4921521;28;101644;-75
2023/12/19 03:31:52;;;;;;;;;8.75;7.25;;;;;-143.90;56.66;76206.06;4922491;28;101964;-76
2023/12/19 03:34:19;;;;;;;;;7.25;7.00;;;;;-143.90;56.81;76218.47;4914188;28;101956;-75
2023/12/19 03:36:46;;;;;;;;;7.00;7.00;;;;;-143.90;56.29;76222.59;4926241;28;103958;-75
2023/12/19 03:39:13;;;;;;;;;9.00;7.00;;;;;-143.90;56.24;76214.31;4923191;28;101943;-75
2023/12/19 03:41:40;;;;;;;;;4.00;3.25;;;;;-143.90;56.10;76212.25;4920003;28;101745;-75
2023/12/19 03:44:26;;;;;;;;;10.25;8.00;;;;;-143.90;56.01;76226.72;4906038;28;102556;-75
2023/12/19 03:46:53;;;;;;;;;12.75;7.25;;;;;-143.90;55.46;76212.25;4927318;28;103425;-75
2023/12/19 03:49:20;;;;;;;;;10.25;7.75;;;;;-143.90;55.85;76214.31;4924319;28;101856;-73
2023/12/19 03:59:21;;;;;;;;;8.50;6.50;;;;;-143.90;54.47;76189.50;4920570;28;106284;-76
2023/12/19 04:01:48;;;;;;;;;6.00;6.00;;;;;-143.90;54.24;76183.31;4924125;28;101944;-75
2023/12/19 04:04:17;;;;;;;;;11.50;8.00;;;;;-143.90;54.31;76195.72;4924515;28;101796;-75
2023/12/19 04:06:44;;;;;;;;;9.00;7.25;;;;;-143.90;54.14;76189.50;4924556;28;101830;-75
2023/12/19 04:09:11;;;;;;;;;6.00;5.00;;;;;-143.90;54.28;76191.56;4910069;28;103511;-75
2023/12/19 04:11:38;;;;;;;;;7.00;6.00;;;;;-143.90;54.41;76191.56;4917630;28;101843;-75
2023/12/19 04:14:05;;;;;;;;;6.50;6.50;;;;;-143.90;53.90;76181.25;4915241;28;101596;-75
2023/12/19 04:16:32;;;;;;;;;8.25;6.00;;;;;-143.90;53.95;76172.97;4922949;28;101727;-74
2023/12/19 04:18:59;;;;;;;;;5.00;3.25;;;;;-143.90;54.10;76156.41;4919425;28;104076;-75
2023/12/19 04:21:25;;;;;;;;;2.00;2.00;;;;;-143.90;53.61;76154.34;4906963;28;102133;-74
2023/12/19 04:23:52;;;;;;;;;5.50;4.00;;;;;-143.90;53.50;76162.63;4920841;28;102473;-75
2023/12/19 04:26:19;;;;;;;;;7.00;6.00;;;;;-143.90;54.02;76179.16;4919991;28;101858;-75
2023/12/19 04:28:48;;;;;;;;;4.00;4.00;;;;;-143.90;53.60;76187.44;4918402;28;103310;-74
2023/12/19 04:31:15;;;;;;;;;3.75;3.00;;;;;-143.90;53.73;76185.38;4922469;28;101699;-74
2023/12/19 04:33:41;;;;;;;;;2.50;2.50;;;;;-143.90;53.83;76179.16;4922884;28;103088;-74
2023/12/19 04:36:12;;;;;;;;;3.50;3.25;;;;;-143.90;53.89;76177.09;4922068;28;101864;-75
2023/12/19 04:38:39;;;;;;;;;4.00;4.00;;;;;-143.90;53.46;76181.25;4923365;28;103936;-75
2023/12/19 04:41:06;;;;;;;;;3.00;3.00;;;;;-143.90;53.48;76179.16;4923307;28;101596;-74
2023/12/19 04:43:32;;;;;;;;;6.00;3.00;;;;;-143.90;53.68;76187.44;4920722;28;103250;-75
2023/12/19 04:46:01;;;;;;;;;6.00;6.00;;;;;-143.90;53.90;76181.25;4921859;28;101703;-74
2023/12/19 04:48:28;;;;;;;;;14.50;13.50;;;;;-143.90;53.83;76181.25;4921705;28;103579;-74
2023/12/19 04:50:54;;;;;;;;;36.00;25.50;;;;;-143.90;53.64;76177.09;4920733;28;101610;-75
2023/12/19 04:53:21;;;;;;;;;22.25;20.00;;;;;-143.90;53.85;76193.66;4910356;28;102107;-74
2023/12/19 04:55:48;;;;;;;;;14.50;14.00;;;;;-143.90;53.78;76191.56;4925665;28;102629;-75
2023/12/19 04:58:14;;;;;;;;;13.25;10.50;;;;;-143.90;53.83;76206.06;4920790;28;103520;-74
2023/12/19 05:00:41;;;;;;;;;12.00;8.25;;;;;-143.90;53.88;76208.13;4924351;28;101719;-74
2023/12/19 05:03:08;;;;;;;;;8.50;8.00;;;;;-143.90;53.65;76210.19;4923945;28;102688;-74
2023/12/19 05:05:34;;;;;;;;;8.75;6.75;;;;;-143.90;54.00;76212.25;4924148;28;101884;-75
2023/12/19 05:08:01;;;;;;;;;7.00;7.00;;;;;-143.90;53.70;76218.47;4925525;28;103578;-74
2023/12/19 05:10:28;;;;;;;;;5.00;5.00;;;;;-143.90;53.85;76224.66;4927995;28;102852;-75
2023/12/19 05:12:54;;;;;;;;;7.00;6.00;;;;;-143.90;53.76;76226.72;4925347;28;101625;-75
2023/12/19 05:15:21;;;;;;;;;6.00;6.00;;;;;-143.90;54.26;76237.06;4924647;28;101796;-75
2023/12/19 05:17:48;;;;;;;;;6.00;6.00;;;;;-143.90;53.88;76241.22;4927461;28;103844;-76
2023/12/19 05:20:14;;;;;;;;;10.25;7.00;;;;;-143.90;54.20;76255.69;4924972;28;101565;-75
2023/12/19 05:22:41;;;;;;;;;9.00;7.00;;;;;-143.90;54.29;76263.97;4918434;28;101574;-75
2023/12/19 05:25:08;;;;;;;;;9.50;7.00;;;;;-143.90;53.45;76263.97;4927202;28;102822;-75
2023/12/19 05:27:36;;;;;;;;;6.25;6.00;;;;;-143.90;53.75;76255.69;4923397;28;103456;-75
2023/12/19 05:30:03;;;;;;;;;7.75;7.75;;;;;-143.90;54.02;76259.81;4906010;28;101810;-75
2023/12/19 05:32:30;;;;;;;;;11.75;7.75;;;;;-143.90;53.76;76261.88;4921534;28;102421;-75
2023/12/19 05:34:57;;;;;;;;;8.75;8.00;;;;;-143.90;54.07;76268.09;4925362;28;102773;-75
2023/12/19 05:37:24;;;;;;;;;5.50;4.00;;;;;-143.90;54.29;76268.09;4922871;28;107994;-76
2023/12/19 05:39:50;;;;;;;;;4.50;4.50;;;;;-143.90;54.07;76276.38;4924571;28;101675;-76
2023/12/19 05:42:17;;;;;;;;;9.00;6.00;;;;;-143.90;54.66;76280.50;4922247;28;101818;-76
2023/12/19 05:44:43;;;;;;;;;9.00;8.75;;;;;-143.90;54.09;76284.63;4921811;28;102980;-76
2023/12/19 05:47:10;;;;;;;;;6.25;4.50;;;;;-143.90;54.00;76286.69;4917520;28;103527;-76
2023/12/19 05:49:36;;;;;;;;;4.00;4.00;;;;;-143.90;53.85;76280.50;4920428;28;106260;-76
2023/12/19 05:52:04;;;;;;;;;6.75;5.50;;;;;-143.90;54.07;76280.50;4924853;28;101832;-76
2023/12/19 05:54:30;;;;;;;;;4.75;2.50;;;;;-143.90;54.26;76278.44;4925411;28;102183;-76
2023/12/19 05:56:57;;;;;;;;;12.75;6.00;;;;;-143.90;54.08;76278.44;4920978;28;104004;-75
2023/12/19 05:59:24;;;;;;;;;8.75;6.75;;;;;-143.90;54.39;76282.56;4930713;28;102229;-76
2023/12/19 06:01:50;;;;;;;;;6.25;5.50;;;;;-143.90;54.12;76276.38;4923948;28;101596;-76
2023/12/19 06:04:18;;;;;;;;;8.00;7.00;;;;;-143.90;54.36;76278.44;4926298;28;101961;-75
2023/12/19 06:06:45;;;;;;;;;4.00;4.00;;;;;-143.90;53.95;76272.22;4923818;28;103534;-75
2023/12/19 06:09:11;;;;;;;;;7.25;7.00;;;;;-143.90;53.66;76255.69;4926418;28;101663;-76
2023/12/19 06:11:39;;;;;;;;;7.75;6.50;;;;;-143.90;53.79;76251.53;4929112;28;101948;-76
2023/12/19 06:14:08;;;;;;;;;12.00;8.50;;;;;-143.90;53.61;76245.34;4929640;28;101890;-76
2023/12/19 06:16:34;;;;;;;;;9.25;8.75;;;;;-143.90;53.27;76237.06;4922876;28;103749;-76
2023/12/19 06:19:01;;;;;;;;;7.00;6.25;;;;;-143.90;53.44;76230.88;4926744;28;101945;-75
2023/12/19 06:21:28;;;;;;;;;7.00;6.00;;;;;-143.90;53.04;76228.81;4925857;28;102999;-76
2023/12/19 06:23:54;;;;;;;;;8.25;7.00;;;;;-143.90;53.58;76224.66;4925647;28;102210;-76
2023/12/19 06:26:21;;;;;;;;;8.25;7.00;;;;;-143.90;52.68;76214.31;4926583;28;103222;-76
2023/12/19 06:28:47;;;;;;;;;5.25;5.00;;;;;-143.90;52.89;76203.97;4930016;28;102309;-76
2023/12/19 06:31:14;;;;;;;;;3.00;1.50;;;;;-143.90;52.07;76193.66;4925795;28;101588;-76
2023/12/19 06:33:41;;;;;;;;;12.00;9.75;;;;;-143.90;52.50;76187.44;4931643;28;104702;-74
2023/12/19 06:36:08;;;;;;;;;16.50;13.00;;;;;-143.90;52.27;76177.09;4923587;28;103753;-74
2023/12/19 06:38:36;;;;;;;;;13.50;10.00;;;;;-143.90;52.43;76181.25;4925165;28;101713;-73
2023/12/19 06:41:03;;;;;;;;;14.00;12.50;;;;;-143.90;52.34;76189.50;4924789;28;101672;-74
2023/12/19 06:43:30;;;;;;;;;4.50;3.50;;;;;-143.90;52.12;76193.66;4931954;28;101814;-75
2023/12/19 06:45:56;;;;;;;;;11.25;9.00;;;;;-143.90;51.82;76177.09;4929649;28;108102;-76
2023/12/19 06:48:23;;;;;;;;;11.50;9.00;;;;;-143.90;51.70;76172.97;4928100;28;101941;-76
2023/12/19 06:50:50;;;;;;;;;11.00;7.75;;;;;-143.90;51.66;76175.03;4928415;28;102178;-75
2023/12/19 06:53:16;;;;;;;;;11.75;8.50;;;;;-143.90;51.26;76158.50;4928787;28;101775;-76
2023/12/19 06:55:43;;;;;;;;;7.25;7.25;;;;;-143.90;51.32;76148.16;4927028;28;103785;-76
2023/12/19 06:58:10;;;;;;;;;4.50;4.50;;;;;-143.90;51.00;76148.16;4928149;28;101977;-76
2023/12/19 07:00:37;;;;;;;;;7.50;7.00;;;;;-143.90;51.44;76154.34;4926602;28;103110;-76
2023/12/19 07:03:04;;;;;;;;;9.00;8.00;;;;;-143.90;50.49;76160.56;4926807;28;101787;-76
2023/12/19 07:05:30;;;;;;;;;8.50;8.00;;;;;-143.90;50.81;76162.63;4928860;28;103468;-76
2023/12/19 07:07:57;;;;;;;;;7.25;6.25;;;;;-143.90;50.62;76162.63;4930983;28;101860;-76
2023/12/19 07:10:23;;;;;;;;;10.00;9.00;;;;;-143.90;50.91;76152.28;4926646;28;102070;-76
2023/12/19 07:12:50;;;;;;;;;9.25;7.75;;;;;-143.90;50.58;76144.00;4928152;28;101829;-76
2023/12/19 07:15:17;;;;;;;;;10.00;8.00;;;;;-143.90;50.88;76137.81;4920242;28;103343;-75
2023/12/19 07:17:43;;;;;;;;;10.25;9.00;;;;;-143.90;50.98;76139.88;4921259;28;102868;-77
2023/12/19 07:20:10;;;;;;;;;8.00;8.00;;;;;-143.90;49.87;76131.59;4925426;28;102193;-76
2023/12/19 07:22:37;;;;;;;;;7.00;7.00;;;;;-143.90;50.11;76129.53;4929694;28;102169;-77
2023/12/19 07:25:04;;;;;;;;;8.00;7.25;;;;;-143.90;50.04;76131.59;4926424;28;103547;-74
2023/12/19 07:27:31;;;;;;;;;7.25;6.75;;;;;-143.90;50.71;76135.75;4926221;28;101820;-75
2023/12/19 07:30:05;;;;;;;;;7.00;6.00;;;;;-143.90;49.60;76119.19;4925678;28;101413;-74
2023/12/19 07:32:32;;;;;;;;;7.00;7.00;;;;;-143.90;50.12;76117.13;4927074;28;101602;-76
2023/12/19 07:34:59;;;;;;;;;7.75;6.00;;;;;-143.90;50.04;76115.06;4929583;28;103535;-75
2023/12/19 07:37:25;;;;;;;;;6.00;4.50;;;;;-143.90;49.84;76117.13;4925782;28;101624;-76
2023/12/19 07:39:52;;;;;;;;;6.75;6.50;;;;;-143.90;49.91;76119.19;4928311;28;102244;-75
2023/12/19 07:42:19;;;;;;;;;7.25;6.00;;;;;-143.90;50.35;76108.84;4926420;28;101619;-76
2023/12/19 07:44:45;;;;;;;;;7.00;7.00;;;;;-143.90;49.82;76106.78;4926043;28;103548;-75
2023/12/19 07:47:12;;;;;;;;;6.00;5.75;;;;;-143.90;50.04;76102.66;4923368;28;102001;-76
2023/12/19 07:49:39;;;;;;;;;6.25;6.00;;;;;-143.90;49.43;76096.44;4923771;28;101528;-75
2023/12/19 07:52:06;;;;;;;;;10.00;7.25;;;;;-143.90;49.76;76094.38;4924494;28;101641;-76
2023/12/19 07:54:33;;;;;;;;;9.00;8.25;;;;;-143.90;50.05;76086.13;4928699;28;103313;-76
2023/12/19 07:56:59;;;;;;;;;8.00;8.00;;;;;-143.90;49.45;76090.25;4929490;28;101893;-75
2023/12/19 07:59:27;;;;;;;;;9.50;7.25;;;;;-143.90;48.96;76092.31;4928242;28;101929;-76
2023/12/19 08:01:53;;;;;;;;;8.50;7.50;;;;;-143.90;49.39;76079.91;4912033;28;102431;-76
2023/12/19 08:04:20;;;;;;;;;7.50;6.00;;;;;-143.90;49.07;76071.63;4924328;28;103781;-75
2023/12/19 08:06:47;;;;;;;;;8.50;8.00;;;;;-143.90;48.98;76069.56;4930060;28;101908;-76
2023/12/19 08:09:15;;;;;;;;;7.50;4.00;;;;;-143.90;48.52;76053.03;4928089;28;101562;-76
2023/12/19 08:11:41;;;;;;;;;7.75;6.50;;;;;-143.90;48.30;76050.97;4929109;28;101689;-76
2023/12/19 08:14:08;;;;;;;;;10.25;8.50;;;;;-143.90;48.64;76046.81;4929119;28;103291;-75
2023/12/19 08:16:36;;;;;;;;;8.50;7.50;;;;;-143.90;48.69;76026.16;4924964;28;101617;-75
2023/12/19 08:19:03;;;;;;;;;3.00;3.00;;;;;-143.90;48.05;76011.66;4924436;28;101679;-75
2023/12/19 08:21:32;;;;;;;;;11.75;9.00;;;;;-143.90;48.32;76005.47;4928494;28;102005;-75
2023/12/19 08:23:58;;;;;;;;;14.00;8.00;;;;;-143.90;47.72;75991.00;4916753;28;108136;-76
2023/12/19 08:26:25;;;;;;;;;7.50;7.50;;;;;-143.90;47.00;75995.13;4926429;28;102063;-75
2023/12/19 08:28:52;;;;;;;;;9.00;9.00;;;;;-143.90;47.33;75980.66;4930765;28;101647;-75
2023/12/19 08:31:18;;;;;;;;;9.25;8.00;;;;;-143.90;47.66;75980.66;4929700;28;101580;-76
2023/12/19 08:33:46;;;;;;;;;11.50;7.00;;;;;-143.90;47.17;75966.19;4929973;28;103365;-76
2023/12/19 08:36:13;;;;;;;;;7.75;7.25;;;;;-143.90;46.83;75959.97;4928411;28;101663;-75
2023/12/19 08:38:59;;;;;;;;;9.50;8.75;;;;;-143.90;47.55;75951.69;4927833;28;101708;-74
2023/12/19 08:41:26;;;;;;;;;8.75;8.00;;;;;-143.90;47.51;75949.63;4913719;28;101852;-75
2023/12/19 08:43:52;;;;;;;;;10.75;8.50;;;;;-143.90;46.53;75939.28;4930112;28;103532;-74
2023/12/19 08:46:19;;;;;;;;;8.25;7.25;;;;;-143.90;47.18;75937.22;4927465;28;101858;-75
2023/12/19 08:48:48;;;;;;;;;9.25;6.75;;;;;-143.90;46.97;75931.03;4926428;28;101561;-75
2023/12/19 08:51:15;;;;;;;;;10.00;7.25;;;;;-143.90;46.88;75924.81;4931332;28;102842;-75
2023/12/19 08:53:42;;;;;;;;;9.00;7.50;;;;;-143.90;46.88;75916.56;4924271;28;103447;-75
2023/12/19 08:56:09;;;;;;;;;7.75;7.00;;;;;-143.90;46.73;75902.06;4930377;28;102224;-75
2023/12/19 08:58:36;;;;;;;;;14.50;10.00;;;;;-143.90;47.21;75895.88;4928890;28;101509;-75
2023/12/19 09:01:03;;;;;;;;;8.25;7.00;;;;;-143.90;46.46;75885.53;4930823;28;104333;-75
2023/12/19 09:03:30;;;;;;;;;7.50;5.00;;;;;-143.90;46.67;75883.47;4933966;28;103325;-74
2023/12/19 09:05:57;;;;;;;;;11.00;8.25;;;;;-143.90;45.91;75873.13;4932866;28;101590;-76
2023/12/19 09:08:23;;;;;;;;;9.00;7.25;;;;;-143.90;46.03;75873.13;4930758;28;101635;-77
2023/12/19 09:10:50;;;;;;;;;8.25;7.00;;;;;-143.90;46.14;75866.94;4932918;28;101650;-77
2023/12/19 09:13:17;;;;;;;;;7.00;6.25;;;;;-143.90;46.11;75875.19;4930824;28;103369;-77
2023/12/19 09:15:44;;;;;;;;;9.50;8.00;;;;;-143.90;46.29;75875.19;4932191;28;101607;-74
2023/12/19 09:18:11;;;;;;;;;8.00;7.25;;;;;-143.90;46.04;75875.19;4932689;28;102420;-75
2023/12/19 09:20:38;;;;;;;;;8.75;6.50;;;;;-143.90;45.77;75877.25;4932849;28;101987;-75
2023/12/19 09:23:05;;;;;;;;;8.25;7.25;;;;;-143.90;46.01;75871.06;4914519;28;103489;-75
2023/12/19 09:25:31;;;;;;;;;10.00;8.00;;;;;-143.90;46.03;75871.06;4931433;28;101469;-75
2023/12/19 09:27:58;;;;;;;;;7.50;7.00;;;;;-143.90;46.07;75869.00;4929085;28;101564;-75
2023/12/19 09:30:25;;;;;;;;;7.00;5.00;;;;;-143.90;46.14;75866.94;4929003;28;101618;-75
2023/12/19 09:32:52;;;;;;;;;6.00;6.00;;;;;-143.90;46.08;75852.44;4929236;28;103408;-75
2023/12/19 09:35:19;;;;;;;;;8.00;7.00;;;;;-143.90;46.45;75850.38;4926188;28;101568;-75
2023/12/19 09:37:46;;;;;;;;;3.25;2.75;;;;;-143.90;45.72;75842.13;4926291;28;101801;-75
2023/12/19 09:40:19;;;;;;;;;10.75;7.50;;;;;-143.90;46.06;75821.44;4928422;28;101735;-75
2023/12/19 09:42:46;;;;;;;;;8.50;5.00;;;;;-143.90;45.77;75811.09;4929304;28;103727;-75
2023/12/19 09:45:14;;;;;;;;;9.75;9.25;;;;;-143.90;45.33;75804.91;4929524;28;101584;-75
2023/12/19 09:47:52;;;;;;;;;8.25;7.25;;;;;-143.90;45.13;75794.56;4926910;28;101868;-75
2023/12/19 09:50:20;;;;;;;;;6.00;4.00;;;;;-143.90;45.16;75788.34;4927047;28;101889;-75
2023/12/19 09:52:48;;;;;;;;;8.00;7.00;;;;;-143.90;45.08;75771.81;4927898;28;103382;-75
2023/12/19 09:55:16;;;;;;;;;5.00;4.50;;;;;-143.90;44.50;75763.53;4928328;28;102013;-75
2023/12/19 09:57:44;;;;;;;;;12.50;8.00;;;;;-143.90;44.94;75761.47;4929468;28;101600;-75
2023/12/19 10:00:11;;;;;;;;;10.25;7.75;;;;;-143.90;44.39;75751.13;4931975;28;101571;-75
2023/12/19 10:02:38;;;;;;;;;8.00;7.75;;;;;-143.90;44.66;75747.00;4929197;28;103416;-75
2023/12/19 10:05:05;;;;;;;;;9.00;8.25;;;;;-143.90;44.69;75742.88;4928397;28;101610;-74
2023/12/19 10:07:32;;;;;;;;;8.75;7.00;;;;;-143.90;44.58;75720.13;4929806;28;101610;-75
2023/12/19 10:10:03;;;;;;;;;8.00;7.25;;;;;-143.90;44.80;75718.06;4928118;28;101935;-75
2023/12/19 10:12:31;;;;;;;;;5.00;5.00;;;;;-143.90;44.00;75713.91;4931202;28;108049;-76
2023/12/19 10:15:13;;;;;;;;;6.75;4.50;;;;;-143.90;44.20;75705.66;4927929;28;101621;-75
2023/12/19 10:18:04;;;;;;;;;7.50;5.50;;;;;-143.90;44.09;75682.91;4928723;28;102003;-76
2023/12/19 10:20:32;;;;;;;;;7.00;6.50;;;;;-143.90;43.09;75676.69;4931221;28;102349;-75
2023/12/19 10:23:05;;;;;;;;;6.50;5.00;;;;;-143.90;43.71;75651.88;4928620;28;107966;-75
2023/12/19 10:25:34;;;;;;;;;4.25;4.00;;;;;-143.90;43.25;75643.63;4928551;28;101892;-74
2023/12/19 10:28:13;;;;;;;;;4.00;3.50;;;;;-143.90;43.01;75627.06;4922830;28;101579;-75
2023/12/19 10:30:42;;;;;;;;;4.50;3.75;;;;;-143.90;43.25;75610.53;4923870;28;102004;-76
2023/12/19 10:33:11;;;;;;;;;5.00;4.25;;;;;-143.90;42.95;75612.59;4924781;28;103456;-75
2023/12/19 10:35:39;;;;;;;;;7.50;7.50;;;;;-143.90;42.69;75602.25;4926142;28;101860;-75
2023/12/19 10:38:06;;;;;;;;;5.50;4.25;;;;;-143.90;43.08;75594.00;4930066;28;101602;-75
2023/12/19 10:40:36;;;;;;;;;6.00;6.00;;;;;-143.90;42.52;75602.25;4930486;28;102242;-74
2023/12/19 10:43:03;;;;;;;;;9.25;7.00;;;;;-143.90;42.73;75585.72;4928653;28;103652;-76
2023/12/19 10:45:31;;;;;;;;;7.00;5.00;;;;;-143.90;42.11;75591.94;4915672;28;101586;-75
2023/12/19 10:47:58;;;;;;;;;6.50;5.00;;;;;-143.90;42.59;75591.94;4929990;28;106946;-75
2023/12/19 10:50:27;;;;;;;;;10.00;6.50;;;;;-143.90;42.85;75589.84;4922483;28;101553;-75
2023/12/19 10:53:00;;;;;;;;;7.50;4.25;;;;;-143.90;43.59;75620.88;4928421;28;103318;-76
2023/12/19 10:55:36;;;;;;;;;5.00;4.00;;;;;-143.90;43.17;75618.81;4925525;28;101818;-76
2023/12/19 10:58:03;;;;;;;;;6.50;4.75;;;;;-143.90;43.62;75612.59;4928185;28;101555;-74
2023/12/19 11:00:33;;;;;;;;;7.00;5.00;;;;;-143.90;43.31;75616.72;4932819;28;101680;-75
2023/12/19 11:03:10;;;;;;;;;8.50;5.50;;;;;-143.90;43.18;75596.06;4929135;28;107806;-75
2023/12/19 11:05:40;;;;;;;;;5.00;5.00;;;;;-143.90;43.33;75577.44;4927558;28;102121;-76
2023/12/19 11:08:17;;;;;;;;;4.50;4.00;;;;;-143.90;42.86;75567.13;4927687;28;101864;-76
2023/12/19 11:11:02;;;;;;;;;9.00;8.00;;;;;-143.90;43.36;75565.03;4927449;28;101925;-75
2023/12/19 11:13:31;;;;;;;;;9.00;5.00;;;;;-143.90;42.74;75554.72;4924575;28;111320;-75